sensor_id;sensor_type;location;lat;lon;timestamp;P1;durP1;ratioP1;P2;durP2;ratioP2
21030;SDS011;61072;47.808;7.636;2023-04-08T00:01:38;2.00;;;1.50;;
21030;SDS011;61072;47.808;7.636;2023-04-08T00:04:05;3.08;;;1.45;;
21030;SDS011;61072;47.808;7.636;2023-04-08T00:06:35;1.70;;;1.10;;
21030;SDS011;61072;47.808;7.636;2023-04-08T00:09:02;3.03;;;1.70;;
21030;SDS011;61072;47.808;7.636;2023-04-08T00:11:29;2.20;;;1.55;;
21030;SDS011;61072;47.808;7.636;2023-04-08T00:13:55;1.50;;;1.40;;
21030;SDS011;61072;47.808;7.636;2023-04-08T00:16:22;2.25;;;1.80;;
21030;SDS011;61072;47.808;7.636;2023-04-08T00:18:49;3.25;;;1.60;;
21030;SDS011;61072;47.808;7.636;2023-04-08T00:21:16;1.95;;;1.55;;
21030;SDS011;61072;47.808;7.636;2023-04-08T00:23:45;2.15;;;1.73;;
21030;SDS011;61072;47.808;7.636;2023-04-08T00:26:12;4.68;;;1.73;;
21030;SDS011;61072;47.808;7.636;2023-04-08T00:28:39;2.85;;;1.95;;
21030;SDS011;61072;47.808;7.636;2023-04-08T00:31:06;3.35;;;1.85;;
21030;SDS011;61072;47.808;7.636;2023-04-08T00:33:33;2.67;;;1.80;;
21030;SDS011;61072;47.808;7.636;2023-04-08T00:35:59;2.70;;;2.00;;
21030;SDS011;61072;47.808;7.636;2023-04-08T00:38:26;3.63;;;1.60;;
21030;SDS011;61072;47.808;7.636;2023-04-08T00:40:53;2.20;;;1.55;;
21030;SDS011;61072;47.808;7.636;2023-04-08T00:43:20;3.13;;;2.03;;
21030;SDS011;61072;47.808;7.636;2023-04-08T00:45:47;1.90;;;1.70;;
21030;SDS011;61072;47.808;7.636;2023-04-08T00:48:13;1.88;;;1.48;;
21030;SDS011;61072;47.808;7.636;2023-04-08T00:50:41;2.40;;;1.92;;
21030;SDS011;61072;47.808;7.636;2023-04-08T00:53:08;2.50;;;1.83;;
21030;SDS011;61072;47.808;7.636;2023-04-08T00:55:35;2.03;;;1.60;;
21030;SDS011;61072;47.808;7.636;2023-04-08T00:58:02;3.40;;;1.95;;
21030;SDS011;61072;47.808;7.636;2023-04-08T01:00:29;4.30;;;1.80;;
21030;SDS011;61072;47.808;7.636;2023-04-08T01:08:09;2.47;;;1.80;;
21030;SDS011;61072;47.808;7.636;2023-04-08T01:10:37;1.60;;;1.38;;
21030;SDS011;61072;47.808;7.636;2023-04-08T01:13:08;2.72;;;1.70;;
21030;SDS011;61072;47.808;7.636;2023-04-08T01:15:37;3.95;;;1.98;;
21030;SDS011;61072;47.808;7.636;2023-04-08T01:18:08;5.57;;;2.07;;
21030;SDS011;61072;47.808;7.636;2023-04-08T01:20:38;1.48;;;1.38;;
21030;SDS011;61072;47.808;7.636;2023-04-08T01:25:54;2.95;;;1.92;;
21030;SDS011;61072;47.808;7.636;2023-04-08T01:28:22;2.03;;;1.83;;
21030;SDS011;61072;47.808;7.636;2023-04-08T01:30:52;2.30;;;1.92;;
21030;SDS011;61072;47.808;7.636;2023-04-08T01:33:22;1.85;;;1.60;;
21030;SDS011;61072;47.808;7.636;2023-04-08T01:35:50;2.42;;;1.42;;
21030;SDS011;61072;47.808;7.636;2023-04-08T01:38:19;2.53;;;1.90;;
21030;SDS011;61072;47.808;7.636;2023-04-08T01:43:15;2.65;;;1.95;;
21030;SDS011;61072;47.808;7.636;2023-04-08T01:45:43;1.77;;;1.58;;
21030;SDS011;61072;47.808;7.636;2023-04-08T01:48:11;2.22;;;1.50;;
21030;SDS011;61072;47.808;7.636;2023-04-08T01:50:43;1.90;;;1.70;;
21030;SDS011;61072;47.808;7.636;2023-04-08T01:53:10;2.38;;;1.60;;
21030;SDS011;61072;47.808;7.636;2023-04-08T01:55:38;2.15;;;1.70;;
21030;SDS011;61072;47.808;7.636;2023-04-08T01:58:06;3.30;;;1.90;;
21030;SDS011;61072;47.808;7.636;2023-04-08T02:00:36;2.05;;;1.80;;
21030;SDS011;61072;47.808;7.636;2023-04-08T02:03:06;1.85;;;1.67;;
21030;SDS011;61072;47.808;7.636;2023-04-08T02:05:35;1.75;;;1.58;;
21030;SDS011;61072;47.808;7.636;2023-04-08T02:08:02;2.80;;;1.75;;
21030;SDS011;61072;47.808;7.636;2023-04-08T02:10:29;1.90;;;1.70;;
21030;SDS011;61072;47.808;7.636;2023-04-08T02:12:55;2.13;;;1.73;;
21030;SDS011;61072;47.808;7.636;2023-04-08T02:15:23;2.83;;;1.92;;
21030;SDS011;61072;47.808;7.636;2023-04-08T02:17:56;2.92;;;1.80;;
21030;SDS011;61072;47.808;7.636;2023-04-08T02:23:04;2.72;;;1.77;;
21030;SDS011;61072;47.808;7.636;2023-04-08T02:25:36;2.78;;;1.92;;
21030;SDS011;61072;47.808;7.636;2023-04-08T02:28:05;2.38;;;2.00;;
21030;SDS011;61072;47.808;7.636;2023-04-08T02:30:35;2.08;;;1.67;;
21030;SDS011;61072;47.808;7.636;2023-04-08T02:33:06;2.50;;;1.90;;
21030;SDS011;61072;47.808;7.636;2023-04-08T02:35:34;1.92;;;1.60;;
21030;SDS011;61072;47.808;7.636;2023-04-08T02:38:02;2.15;;;1.80;;
21030;SDS011;61072;47.808;7.636;2023-04-08T02:40:32;2.03;;;1.70;;
21030;SDS011;61072;47.808;7.636;2023-04-08T02:43:00;2.75;;;2.22;;
21030;SDS011;61072;47.808;7.636;2023-04-08T02:45:29;2.67;;;2.05;;
21030;SDS011;61072;47.808;7.636;2023-04-08T02:47:57;2.97;;;2.30;;
21030;SDS011;61072;47.808;7.636;2023-04-08T02:50:25;5.88;;;3.03;;
21030;SDS011;61072;47.808;7.636;2023-04-08T02:52:52;4.20;;;2.40;;
21030;SDS011;61072;47.808;7.636;2023-04-08T02:55:19;3.00;;;2.58;;
21030;SDS011;61072;47.808;7.636;2023-04-08T02:57:46;3.80;;;1.67;;
21030;SDS011;61072;47.808;7.636;2023-04-08T03:00:13;5.25;;;2.33;;
21030;SDS011;61072;47.808;7.636;2023-04-08T03:02:41;2.35;;;1.77;;
21030;SDS011;61072;47.808;7.636;2023-04-08T03:05:08;1.98;;;1.77;;
21030;SDS011;61072;47.808;7.636;2023-04-08T03:07:35;2.55;;;2.25;;
21030;SDS011;61072;47.808;7.636;2023-04-08T03:10:02;2.47;;;2.03;;
21030;SDS011;61072;47.808;7.636;2023-04-08T03:12:29;3.35;;;2.10;;
21030;SDS011;61072;47.808;7.636;2023-04-08T03:14:56;2.20;;;2.00;;
21030;SDS011;61072;47.808;7.636;2023-04-08T03:17:23;4.20;;;2.08;;
21030;SDS011;61072;47.808;7.636;2023-04-08T03:19:49;2.58;;;2.22;;
21030;SDS011;61072;47.808;7.636;2023-04-08T03:22:16;2.70;;;2.40;;
21030;SDS011;61072;47.808;7.636;2023-04-08T03:24:44;2.70;;;2.20;;
21030;SDS011;61072;47.808;7.636;2023-04-08T03:27:10;4.90;;;2.47;;
21030;SDS011;61072;47.808;7.636;2023-04-08T03:29:37;3.28;;;2.30;;
21030;SDS011;61072;47.808;7.636;2023-04-08T03:32:04;3.50;;;2.45;;
21030;SDS011;61072;47.808;7.636;2023-04-08T03:34:32;3.53;;;2.03;;
21030;SDS011;61072;47.808;7.636;2023-04-08T03:36:59;2.67;;;2.00;;
21030;SDS011;61072;47.808;7.636;2023-04-08T03:39:26;3.05;;;2.45;;
21030;SDS011;61072;47.808;7.636;2023-04-08T03:41:53;2.70;;;2.40;;
21030;SDS011;61072;47.808;7.636;2023-04-08T03:44:20;2.33;;;2.00;;
21030;SDS011;61072;47.808;7.636;2023-04-08T03:46:46;2.65;;;2.17;;
21030;SDS011;61072;47.808;7.636;2023-04-08T03:49:13;3.80;;;2.05;;
21030;SDS011;61072;47.808;7.636;2023-04-08T03:51:40;2.17;;;1.85;;
21030;SDS011;61072;47.808;7.636;2023-04-08T03:54:07;2.17;;;1.90;;
21030;SDS011;61072;47.808;7.636;2023-04-08T03:56:34;2.22;;;2.00;;
21030;SDS011;61072;47.808;7.636;2023-04-08T03:59:00;4.38;;;2.08;;
21030;SDS011;61072;47.808;7.636;2023-04-08T04:01:27;2.40;;;2.00;;
21030;SDS011;61072;47.808;7.636;2023-04-08T04:03:55;3.40;;;2.40;;
21030;SDS011;61072;47.808;7.636;2023-04-08T04:06:22;2.00;;;1.80;;
21030;SDS011;61072;47.808;7.636;2023-04-08T04:08:49;3.35;;;2.33;;
21030;SDS011;61072;47.808;7.636;2023-04-08T04:11:18;5.18;;;3.20;;
21030;SDS011;61072;47.808;7.636;2023-04-08T04:13:44;6.20;;;3.58;;
21030;SDS011;61072;47.808;7.636;2023-04-08T04:16:11;5.10;;;3.67;;
21030;SDS011;61072;47.808;7.636;2023-04-08T04:18:38;5.55;;;3.42;;
21030;SDS011;61072;47.808;7.636;2023-04-08T04:21:05;4.30;;;3.30;;
21030;SDS011;61072;47.808;7.636;2023-04-08T04:23:35;4.97;;;3.15;;
21030;SDS011;61072;47.808;7.636;2023-04-08T04:26:06;5.30;;;3.67;;
21030;SDS011;61072;47.808;7.636;2023-04-08T04:28:34;4.05;;;3.28;;
21030;SDS011;61072;47.808;7.636;2023-04-08T04:31:01;3.38;;;3.08;;
21030;SDS011;61072;47.808;7.636;2023-04-08T04:33:27;2.97;;;2.63;;
21030;SDS011;61072;47.808;7.636;2023-04-08T04:35:54;5.75;;;2.70;;
21030;SDS011;61072;47.808;7.636;2023-04-08T04:38:21;4.25;;;3.45;;
21030;SDS011;61072;47.808;7.636;2023-04-08T04:40:48;4.28;;;3.17;;
21030;SDS011;61072;47.808;7.636;2023-04-08T04:43:14;5.40;;;3.03;;
21030;SDS011;61072;47.808;7.636;2023-04-08T04:45:41;4.05;;;2.70;;
21030;SDS011;61072;47.808;7.636;2023-04-08T04:48:08;3.58;;;2.78;;
21030;SDS011;61072;47.808;7.636;2023-04-08T04:50:34;4.95;;;2.85;;
21030;SDS011;61072;47.808;7.636;2023-04-08T04:53:01;3.90;;;3.05;;
21030;SDS011;61072;47.808;7.636;2023-04-08T04:55:28;4.55;;;2.67;;
21030;SDS011;61072;47.808;7.636;2023-04-08T04:57:54;3.75;;;2.70;;
21030;SDS011;61072;47.808;7.636;2023-04-08T05:00:21;3.97;;;3.08;;
21030;SDS011;61072;47.808;7.636;2023-04-08T05:02:48;4.22;;;2.85;;
21030;SDS011;61072;47.808;7.636;2023-04-08T05:05:15;4.70;;;2.70;;
21030;SDS011;61072;47.808;7.636;2023-04-08T05:07:41;5.13;;;3.40;;
21030;SDS011;61072;47.808;7.636;2023-04-08T05:10:08;2.97;;;2.38;;
21030;SDS011;61072;47.808;7.636;2023-04-08T05:12:36;4.10;;;2.88;;
21030;SDS011;61072;47.808;7.636;2023-04-08T05:15:04;4.45;;;3.25;;
21030;SDS011;61072;47.808;7.636;2023-04-08T05:17:31;4.35;;;2.90;;
21030;SDS011;61072;47.808;7.636;2023-04-08T05:19:58;4.60;;;2.88;;
21030;SDS011;61072;47.808;7.636;2023-04-08T05:22:25;4.55;;;2.80;;
21030;SDS011;61072;47.808;7.636;2023-04-08T05:24:52;3.63;;;2.95;;
21030;SDS011;61072;47.808;7.636;2023-04-08T05:27:19;3.58;;;2.83;;
21030;SDS011;61072;47.808;7.636;2023-04-08T05:29:46;3.83;;;2.97;;
21030;SDS011;61072;47.808;7.636;2023-04-08T05:32:13;5.10;;;2.70;;
21030;SDS011;61072;47.808;7.636;2023-04-08T05:34:42;2.72;;;2.35;;
21030;SDS011;61072;47.808;7.636;2023-04-08T05:37:09;4.28;;;2.42;;
21030;SDS011;61072;47.808;7.636;2023-04-08T05:39:36;5.20;;;2.25;;
21030;SDS011;61072;47.808;7.636;2023-04-08T05:42:03;4.05;;;2.80;;
21030;SDS011;61072;47.808;7.636;2023-04-08T05:44:29;3.10;;;2.80;;
21030;SDS011;61072;47.808;7.636;2023-04-08T05:46:56;4.65;;;2.72;;
21030;SDS011;61072;47.808;7.636;2023-04-08T05:49:23;4.43;;;2.65;;
21030;SDS011;61072;47.808;7.636;2023-04-08T05:51:50;3.17;;;2.60;;
21030;SDS011;61072;47.808;7.636;2023-04-08T05:54:16;3.05;;;2.63;;
21030;SDS011;61072;47.808;7.636;2023-04-08T05:56:43;5.70;;;3.00;;
21030;SDS011;61072;47.808;7.636;2023-04-08T05:59:11;5.63;;;3.00;;
21030;SDS011;61072;47.808;7.636;2023-04-08T06:01:38;4.82;;;2.80;;
21030;SDS011;61072;47.808;7.636;2023-04-08T06:04:05;5.05;;;3.38;;
21030;SDS011;61072;47.808;7.636;2023-04-08T06:06:32;3.95;;;2.95;;
21030;SDS011;61072;47.808;7.636;2023-04-08T06:08:59;6.03;;;3.53;;
21030;SDS011;61072;47.808;7.636;2023-04-08T06:11:25;6.43;;;2.92;;
21030;SDS011;61072;47.808;7.636;2023-04-08T06:13:52;5.55;;;3.10;;
21030;SDS011;61072;47.808;7.636;2023-04-08T06:16:19;5.93;;;3.67;;
21030;SDS011;61072;47.808;7.636;2023-04-08T06:18:46;4.50;;;3.55;;
21030;SDS011;61072;47.808;7.636;2023-04-08T06:21:13;5.90;;;3.95;;
21030;SDS011;61072;47.808;7.636;2023-04-08T06:23:40;5.40;;;4.10;;
21030;SDS011;61072;47.808;7.636;2023-04-08T06:26:07;7.13;;;4.68;;
21030;SDS011;61072;47.808;7.636;2023-04-08T06:28:33;9.10;;;5.20;;
21030;SDS011;61072;47.808;7.636;2023-04-08T06:31:00;9.23;;;6.13;;
21030;SDS011;61072;47.808;7.636;2023-04-08T06:33:27;8.15;;;4.20;;
21030;SDS011;61072;47.808;7.636;2023-04-08T06:36:00;5.40;;;3.92;;
21030;SDS011;61072;47.808;7.636;2023-04-08T06:38:28;12.00;;;4.57;;
21030;SDS011;61072;47.808;7.636;2023-04-08T06:40:55;8.32;;;6.45;;
21030;SDS011;61072;47.808;7.636;2023-04-08T06:43:21;7.82;;;5.88;;
21030;SDS011;61072;47.808;7.636;2023-04-08T06:45:48;9.02;;;7.07;;
21030;SDS011;61072;47.808;7.636;2023-04-08T06:48:15;9.73;;;8.05;;
21030;SDS011;61072;47.808;7.636;2023-04-08T06:50:42;14.27;;;9.32;;
21030;SDS011;61072;47.808;7.636;2023-04-08T06:53:09;10.05;;;8.65;;
21030;SDS011;61072;47.808;7.636;2023-04-08T06:55:35;12.48;;;9.10;;
21030;SDS011;61072;47.808;7.636;2023-04-08T06:58:02;12.05;;;9.27;;
21030;SDS011;61072;47.808;7.636;2023-04-08T07:00:29;13.23;;;9.35;;
21030;SDS011;61072;47.808;7.636;2023-04-08T07:02:55;10.93;;;9.13;;
21030;SDS011;61072;47.808;7.636;2023-04-08T07:05:22;9.90;;;8.35;;
21030;SDS011;61072;47.808;7.636;2023-04-08T07:07:49;9.65;;;8.20;;
21030;SDS011;61072;47.808;7.636;2023-04-08T07:10:15;9.77;;;8.02;;
21030;SDS011;61072;47.808;7.636;2023-04-08T07:12:42;10.05;;;8.10;;
21030;SDS011;61072;47.808;7.636;2023-04-08T07:15:09;10.55;;;7.45;;
21030;SDS011;61072;47.808;7.636;2023-04-08T07:17:36;10.30;;;8.60;;
21030;SDS011;61072;47.808;7.636;2023-04-08T07:20:03;8.70;;;7.20;;
21030;SDS011;61072;47.808;7.636;2023-04-08T07:22:30;11.77;;;7.13;;
21030;SDS011;61072;47.808;7.636;2023-04-08T07:24:57;9.80;;;7.45;;
21030;SDS011;61072;47.808;7.636;2023-04-08T07:27:23;9.93;;;7.28;;
21030;SDS011;61072;47.808;7.636;2023-04-08T07:29:53;9.57;;;7.97;;
21030;SDS011;61072;47.808;7.636;2023-04-08T07:32:20;9.57;;;7.72;;
21030;SDS011;61072;47.808;7.636;2023-04-08T07:34:47;8.57;;;6.70;;
21030;SDS011;61072;47.808;7.636;2023-04-08T07:37:13;8.27;;;6.55;;
21030;SDS011;61072;47.808;7.636;2023-04-08T07:39:40;9.43;;;6.65;;
21030;SDS011;61072;47.808;7.636;2023-04-08T07:42:07;8.88;;;6.43;;
21030;SDS011;61072;47.808;7.636;2023-04-08T07:44:33;9.23;;;7.38;;
21030;SDS011;61072;47.808;7.636;2023-04-08T07:47:00;9.13;;;7.45;;
21030;SDS011;61072;47.808;7.636;2023-04-08T07:49:28;7.28;;;6.32;;
21030;SDS011;61072;47.808;7.636;2023-04-08T07:51:55;11.93;;;7.40;;
21030;SDS011;61072;47.808;7.636;2023-04-08T07:54:22;9.27;;;7.25;;
21030;SDS011;61072;47.808;7.636;2023-04-08T07:56:49;8.20;;;6.80;;
21030;SDS011;61072;47.808;7.636;2023-04-08T07:59:16;8.50;;;7.18;;
21030;SDS011;61072;47.808;7.636;2023-04-08T08:01:42;9.35;;;7.20;;
21030;SDS011;61072;47.808;7.636;2023-04-08T08:04:09;9.93;;;7.07;;
21030;SDS011;61072;47.808;7.636;2023-04-08T08:06:36;8.52;;;6.45;;
21030;SDS011;61072;47.808;7.636;2023-04-08T08:09:03;9.38;;;7.03;;
21030;SDS011;61072;47.808;7.636;2023-04-08T08:11:30;6.70;;;6.00;;
21030;SDS011;61072;47.808;7.636;2023-04-08T08:13:58;7.78;;;6.07;;
21030;SDS011;61072;47.808;7.636;2023-04-08T08:16:27;6.75;;;5.75;;
21030;SDS011;61072;47.808;7.636;2023-04-08T08:21:21;7.28;;;6.15;;
21030;SDS011;61072;47.808;7.636;2023-04-08T08:23:48;7.65;;;6.13;;
21030;SDS011;61072;47.808;7.636;2023-04-08T08:26:17;8.73;;;5.65;;
21030;SDS011;61072;47.808;7.636;2023-04-08T08:28:44;8.73;;;6.38;;
21030;SDS011;61072;47.808;7.636;2023-04-08T08:31:11;7.00;;;5.22;;
21030;SDS011;61072;47.808;7.636;2023-04-08T08:33:37;6.53;;;5.63;;
21030;SDS011;61072;47.808;7.636;2023-04-08T08:36:04;6.88;;;6.18;;
21030;SDS011;61072;47.808;7.636;2023-04-08T08:38:32;7.75;;;6.53;;
21030;SDS011;61072;47.808;7.636;2023-04-08T08:40:59;7.07;;;6.13;;
21030;SDS011;61072;47.808;7.636;2023-04-08T08:43:26;7.25;;;6.05;;
21030;SDS011;61072;47.808;7.636;2023-04-08T08:45:54;6.15;;;4.93;;
21030;SDS011;61072;47.808;7.636;2023-04-08T08:48:21;7.07;;;5.38;;
21030;SDS011;61072;47.808;7.636;2023-04-08T08:50:48;6.80;;;4.82;;
21030;SDS011;61072;47.808;7.636;2023-04-08T08:53:14;6.22;;;4.57;;
21030;SDS011;61072;47.808;7.636;2023-04-08T08:55:41;6.35;;;5.40;;
21030;SDS011;61072;47.808;7.636;2023-04-08T08:58:11;6.68;;;5.28;;
21030;SDS011;61072;47.808;7.636;2023-04-08T09:00:39;8.23;;;5.13;;
21030;SDS011;61072;47.808;7.636;2023-04-08T09:03:23;6.75;;;5.57;;
21030;SDS011;61072;47.808;7.636;2023-04-08T09:05:55;7.35;;;6.05;;
21030;SDS011;61072;47.808;7.636;2023-04-08T09:11:13;6.88;;;5.70;;
21030;SDS011;61072;47.808;7.636;2023-04-08T09:13:42;8.02;;;6.82;;
21030;SDS011;61072;47.808;7.636;2023-04-08T09:16:10;9.35;;;6.70;;
21030;SDS011;61072;47.808;7.636;2023-04-08T09:18:44;9.77;;;6.90;;
21030;SDS011;61072;47.808;7.636;2023-04-08T09:21:13;10.45;;;7.63;;
21030;SDS011;61072;47.808;7.636;2023-04-08T09:23:50;11.18;;;7.97;;
21030;SDS011;61072;47.808;7.636;2023-04-08T09:26:18;8.55;;;6.70;;
21030;SDS011;61072;47.808;7.636;2023-04-08T09:31:34;9.35;;;7.88;;
21030;SDS011;61072;47.808;7.636;2023-04-08T09:34:09;9.70;;;8.00;;
21030;SDS011;61072;47.808;7.636;2023-04-08T09:36:37;10.52;;;8.50;;
21030;SDS011;61072;47.808;7.636;2023-04-08T09:39:04;11.57;;;8.38;;
21030;SDS011;61072;47.808;7.636;2023-04-08T09:41:32;11.23;;;7.95;;
21030;SDS011;61072;47.808;7.636;2023-04-08T09:44:02;9.93;;;7.45;;
21030;SDS011;61072;47.808;7.636;2023-04-08T09:49:16;11.73;;;8.95;;
21030;SDS011;61072;47.808;7.636;2023-04-08T09:51:53;10.73;;;8.82;;
21030;SDS011;61072;47.808;7.636;2023-04-08T09:57:30;10.68;;;8.20;;
21030;SDS011;61072;47.808;7.636;2023-04-08T10:00:24;9.48;;;7.45;;
21030;SDS011;61072;47.808;7.636;2023-04-08T10:03:03;9.70;;;8.23;;
21030;SDS011;61072;47.808;7.636;2023-04-08T10:05:41;10.80;;;8.50;;
21030;SDS011;61072;47.808;7.636;2023-04-08T10:08:11;10.57;;;8.35;;
21030;SDS011;61072;47.808;7.636;2023-04-08T10:10:38;10.10;;;8.43;;
21030;SDS011;61072;47.808;7.636;2023-04-08T10:13:06;8.70;;;7.38;;
21030;SDS011;61072;47.808;7.636;2023-04-08T10:15:34;8.82;;;7.22;;
21030;SDS011;61072;47.808;7.636;2023-04-08T10:25:28;9.98;;;8.95;;
21030;SDS011;61072;47.808;7.636;2023-04-08T10:27:56;11.40;;;8.48;;
21030;SDS011;61072;47.808;7.636;2023-04-08T10:32:53;11.53;;;8.97;;
21030;SDS011;61072;47.808;7.636;2023-04-08T10:35:36;10.60;;;9.18;;
21030;SDS011;61072;47.808;7.636;2023-04-08T10:38:07;13.05;;;8.73;;
21030;SDS011;61072;47.808;7.636;2023-04-08T10:40:34;8.20;;;6.63;;
21030;SDS011;61072;47.808;7.636;2023-04-08T10:43:06;8.40;;;6.80;;
21030;SDS011;61072;47.808;7.636;2023-04-08T10:45:34;8.38;;;5.25;;
21030;SDS011;61072;47.808;7.636;2023-04-08T10:50:59;7.35;;;5.20;;
21030;SDS011;61072;47.808;7.636;2023-04-08T10:53:27;6.78;;;5.22;;
21030;SDS011;61072;47.808;7.636;2023-04-08T10:58:49;12.20;;;8.52;;
21030;SDS011;61072;47.808;7.636;2023-04-08T11:01:17;10.70;;;8.07;;
21030;SDS011;61072;47.808;7.636;2023-04-08T11:03:44;9.23;;;7.93;;
21030;SDS011;61072;47.808;7.636;2023-04-08T11:06:11;12.55;;;8.57;;
21030;SDS011;61072;47.808;7.636;2023-04-08T11:08:38;10.07;;;8.10;;
21030;SDS011;61072;47.808;7.636;2023-04-08T11:11:05;11.70;;;9.13;;
21030;SDS011;61072;47.808;7.636;2023-04-08T11:13:37;11.13;;;8.57;;
21030;SDS011;61072;47.808;7.636;2023-04-08T11:16:11;10.23;;;7.97;;
21030;SDS011;61072;47.808;7.636;2023-04-08T11:18:43;12.90;;;9.27;;
21030;SDS011;61072;47.808;7.636;2023-04-08T11:21:11;13.73;;;8.48;;
21030;SDS011;61072;47.808;7.636;2023-04-08T11:23:37;9.95;;;8.07;;
21030;SDS011;61072;47.808;7.636;2023-04-08T11:26:04;10.82;;;8.13;;
21030;SDS011;61072;47.808;7.636;2023-04-08T11:28:31;10.70;;;7.97;;
21030;SDS011;61072;47.808;7.636;2023-04-08T11:31:00;13.85;;;9.07;;
21030;SDS011;61072;47.808;7.636;2023-04-08T11:33:31;12.75;;;9.15;;
21030;SDS011;61072;47.808;7.636;2023-04-08T11:35:59;11.82;;;8.85;;
21030;SDS011;61072;47.808;7.636;2023-04-08T11:38:27;15.20;;;9.10;;
21030;SDS011;61072;47.808;7.636;2023-04-08T11:40:54;11.60;;;9.15;;
21030;SDS011;61072;47.808;7.636;2023-04-08T11:43:25;13.80;;;9.77;;
21030;SDS011;61072;47.808;7.636;2023-04-08T11:45:53;13.02;;;9.07;;
21030;SDS011;61072;47.808;7.636;2023-04-08T11:48:20;10.85;;;8.23;;
21030;SDS011;61072;47.808;7.636;2023-04-08T11:50:47;11.13;;;8.40;;
21030;SDS011;61072;47.808;7.636;2023-04-08T11:53:27;13.73;;;9.10;;
21030;SDS011;61072;47.808;7.636;2023-04-08T11:55:53;8.57;;;7.05;;
21030;SDS011;61072;47.808;7.636;2023-04-08T11:58:21;10.73;;;7.95;;
21030;SDS011;61072;47.808;7.636;2023-04-08T12:00:48;9.98;;;7.90;;
21030;SDS011;61072;47.808;7.636;2023-04-08T12:03:15;8.25;;;6.95;;
21030;SDS011;61072;47.808;7.636;2023-04-08T12:05:43;9.85;;;7.60;;
21030;SDS011;61072;47.808;7.636;2023-04-08T12:08:09;10.18;;;7.70;;
21030;SDS011;61072;47.808;7.636;2023-04-08T12:10:36;12.05;;;8.48;;
21030;SDS011;61072;47.808;7.636;2023-04-08T12:13:03;13.27;;;9.45;;
21030;SDS011;61072;47.808;7.636;2023-04-08T12:15:29;13.00;;;10.02;;
21030;SDS011;61072;47.808;7.636;2023-04-08T12:17:57;11.95;;;8.68;;
21030;SDS011;61072;47.808;7.636;2023-04-08T12:20:24;12.82;;;9.85;;
21030;SDS011;61072;47.808;7.636;2023-04-08T12:22:51;12.95;;;10.40;;
21030;SDS011;61072;47.808;7.636;2023-04-08T12:25:17;13.93;;;9.55;;
21030;SDS011;61072;47.808;7.636;2023-04-08T12:27:44;14.23;;;8.98;;
21030;SDS011;61072;47.808;7.636;2023-04-08T12:30:11;12.65;;;10.23;;
21030;SDS011;61072;47.808;7.636;2023-04-08T12:32:41;12.75;;;8.95;;
21030;SDS011;61072;47.808;7.636;2023-04-08T12:35:08;16.40;;;10.00;;
21030;SDS011;61072;47.808;7.636;2023-04-08T12:37:34;12.13;;;9.20;;
21030;SDS011;61072;47.808;7.636;2023-04-08T12:40:01;16.05;;;11.50;;
21030;SDS011;61072;47.808;7.636;2023-04-08T12:42:28;14.82;;;11.13;;
21030;SDS011;61072;47.808;7.636;2023-04-08T12:44:55;13.65;;;10.77;;
21030;SDS011;61072;47.808;7.636;2023-04-08T12:47:21;13.75;;;9.68;;
21030;SDS011;61072;47.808;7.636;2023-04-08T12:49:51;13.57;;;10.25;;
21030;SDS011;61072;47.808;7.636;2023-04-08T12:52:17;13.80;;;8.75;;
21030;SDS011;61072;47.808;7.636;2023-04-08T12:54:44;10.63;;;7.95;;
21030;SDS011;61072;47.808;7.636;2023-04-08T12:57:11;10.07;;;8.18;;
21030;SDS011;61072;47.808;7.636;2023-04-08T12:59:37;9.65;;;7.53;;
21030;SDS011;61072;47.808;7.636;2023-04-08T13:02:05;8.25;;;6.60;;
21030;SDS011;61072;47.808;7.636;2023-04-08T13:04:33;7.82;;;6.75;;
21030;SDS011;61072;47.808;7.636;2023-04-08T13:07:00;7.32;;;6.38;;
21030;SDS011;61072;47.808;7.636;2023-04-08T13:09:27;6.97;;;6.10;;
21030;SDS011;61072;47.808;7.636;2023-04-08T13:11:55;9.20;;;7.07;;
21030;SDS011;61072;47.808;7.636;2023-04-08T13:14:23;7.07;;;5.72;;
21030;SDS011;61072;47.808;7.636;2023-04-08T13:16:50;6.78;;;5.50;;
21030;SDS011;61072;47.808;7.636;2023-04-08T13:19:17;6.78;;;5.13;;
21030;SDS011;61072;47.808;7.636;2023-04-08T13:21:44;10.13;;;6.85;;
21030;SDS011;61072;47.808;7.636;2023-04-08T13:24:11;8.05;;;6.22;;
21030;SDS011;61072;47.808;7.636;2023-04-08T13:26:38;6.75;;;5.90;;
21030;SDS011;61072;47.808;7.636;2023-04-08T13:29:05;7.75;;;6.43;;
21030;SDS011;61072;47.808;7.636;2023-04-08T13:31:32;8.32;;;6.32;;
21030;SDS011;61072;47.808;7.636;2023-04-08T13:33:58;8.43;;;6.50;;
21030;SDS011;61072;47.808;7.636;2023-04-08T13:36:25;9.95;;;6.85;;
21030;SDS011;61072;47.808;7.636;2023-04-08T13:38:54;6.75;;;6.05;;
21030;SDS011;61072;47.808;7.636;2023-04-08T13:41:21;8.52;;;5.72;;
21030;SDS011;61072;47.808;7.636;2023-04-08T13:43:48;8.30;;;6.07;;
21030;SDS011;61072;47.808;7.636;2023-04-08T13:46:15;8.13;;;5.93;;
21030;SDS011;61072;47.808;7.636;2023-04-08T13:48:43;8.63;;;6.65;;
21030;SDS011;61072;47.808;7.636;2023-04-08T13:51:11;6.75;;;5.43;;
21030;SDS011;61072;47.808;7.636;2023-04-08T13:53:37;7.55;;;6.22;;
21030;SDS011;61072;47.808;7.636;2023-04-08T13:56:04;7.03;;;5.50;;
21030;SDS011;61072;47.808;7.636;2023-04-08T13:58:31;6.40;;;5.45;;
21030;SDS011;61072;47.808;7.636;2023-04-08T14:00:58;9.70;;;4.90;;
21030;SDS011;61072;47.808;7.636;2023-04-08T14:03:24;6.15;;;4.90;;
21030;SDS011;61072;47.808;7.636;2023-04-08T14:05:51;4.55;;;3.88;;
21030;SDS011;61072;47.808;7.636;2023-04-08T14:08:18;4.85;;;2.80;;
21030;SDS011;61072;47.808;7.636;2023-04-08T14:10:51;4.15;;;2.75;;
21030;SDS011;61072;47.808;7.636;2023-04-08T14:13:18;5.15;;;4.25;;
21030;SDS011;61072;47.808;7.636;2023-04-08T14:15:45;5.55;;;3.95;;
21030;SDS011;61072;47.808;7.636;2023-04-08T14:18:12;5.40;;;4.55;;
21030;SDS011;61072;47.808;7.636;2023-04-08T14:20:39;6.53;;;5.28;;
21030;SDS011;61072;47.808;7.636;2023-04-08T14:23:06;7.88;;;5.28;;
21030;SDS011;61072;47.808;7.636;2023-04-08T14:25:33;6.03;;;5.05;;
21030;SDS011;61072;47.808;7.636;2023-04-08T14:28:00;6.70;;;4.80;;
21030;SDS011;61072;47.808;7.636;2023-04-08T14:30:26;5.07;;;4.28;;
21030;SDS011;61072;47.808;7.636;2023-04-08T14:32:54;4.97;;;4.47;;
21030;SDS011;61072;47.808;7.636;2023-04-08T14:35:20;4.72;;;4.20;;
21030;SDS011;61072;47.808;7.636;2023-04-08T14:37:47;5.70;;;4.78;;
21030;SDS011;61072;47.808;7.636;2023-04-08T14:40:14;6.25;;;4.10;;
21030;SDS011;61072;47.808;7.636;2023-04-08T14:42:40;5.40;;;4.90;;
21030;SDS011;61072;47.808;7.636;2023-04-08T14:45:07;8.40;;;6.18;;
21030;SDS011;61072;47.808;7.636;2023-04-08T14:47:34;7.55;;;5.30;;
21030;SDS011;61072;47.808;7.636;2023-04-08T14:50:01;5.82;;;5.10;;
21030;SDS011;61072;47.808;7.636;2023-04-08T14:52:28;6.00;;;4.68;;
21030;SDS011;61072;47.808;7.636;2023-04-08T14:54:54;6.13;;;5.05;;
21030;SDS011;61072;47.808;7.636;2023-04-08T14:57:21;6.88;;;4.95;;
21030;SDS011;61072;47.808;7.636;2023-04-08T14:59:48;6.40;;;4.75;;
21030;SDS011;61072;47.808;7.636;2023-04-08T15:02:14;5.72;;;4.95;;
21030;SDS011;61072;47.808;7.636;2023-04-08T15:04:41;9.77;;;4.95;;
21030;SDS011;61072;47.808;7.636;2023-04-08T15:07:08;8.45;;;4.75;;
21030;SDS011;61072;47.808;7.636;2023-04-08T15:09:35;6.22;;;4.47;;
21030;SDS011;61072;47.808;7.636;2023-04-08T15:12:01;6.25;;;4.60;;
21030;SDS011;61072;47.808;7.636;2023-04-08T15:14:28;3.95;;;3.55;;
21030;SDS011;61072;47.808;7.636;2023-04-08T15:16:55;4.38;;;3.72;;
21030;SDS011;61072;47.808;7.636;2023-04-08T15:19:22;5.03;;;3.88;;
21030;SDS011;61072;47.808;7.636;2023-04-08T15:21:48;5.93;;;4.57;;
21030;SDS011;61072;47.808;7.636;2023-04-08T15:24:15;5.95;;;4.50;;
21030;SDS011;61072;47.808;7.636;2023-04-08T15:26:42;6.50;;;3.95;;
21030;SDS011;61072;47.808;7.636;2023-04-08T15:29:09;7.32;;;4.75;;
21030;SDS011;61072;47.808;7.636;2023-04-08T15:31:36;5.18;;;4.35;;